Etusivu
METAR-TAF:

METAR-TAF

Lentoasemat :

Ingolstadt, Saksa

Leveyspiiri: 48-43N, Pituuspiiri: 011-32E, korkeus merenpinnasta: 367 m

Tämänhetkinen sää

Tämä raportti tehtiin 39 minuuttia sitten, kello 18.20 UTC
Tuuli 5 kn idästä
Lämpötila 10°C
Kosteus 66%
Ilmanpaine 1000 hPa

METAR: ETSI 031820Z AUTO 08005KT //// // ////// 10/04 Q1000 ///

Aika: 19:59 (18:59 UTC)


TAF: puuttuu

Säähavainnot ja -ennusteet yli 4000 lentoasemalta (METAR- ja TAF-raportit).

Käytössä olevat sääasemat on merkitty karttaan keltaisilla ja punaisilla pisteillä.

Aseta hiiri pisteen päälle nähdäksesi sääaseman nimen.

Klikkaa sitten nähdäksesi säähavainnot ja -ennusteet.

Kartan vaihtaminen: klikkaa mustalla rastilla varustettuja vihreitä pisteitä, niin voit zoomata sisään; viivalla varustettua vihreää pistettä, niin voit zoomata ulos tai vihreitä nuolia, niin pääset viereisille kartoille.


METAR-TAF: